Time;durP1;ratioP1;P1;durP2;ratioP2;P2;SDS_P1;SDS_P2;PMS_P1;PMS_P2;Temp;Humidity;BMP_temperature;BMP_pressure;BME280_temperature;BME280_humidity;BME280_pressure;Samples;Min_cycle;Max_cycle;Signal;HPM_P1;HPM_P2
2023/05/25 00:01:00;;;;;;;14.53;8.93;;;9.10;99.90;;;;;;5038884;28;20338;-80
2023/05/25 00:03:27;;;;;;;16.87;9.47;;;9.10;99.90;;;;;;5040630;28;20233;-81
2023/05/25 00:05:54;;;;;;;15.80;10.00;;;9.00;99.90;;;;;;5041158;28;20227;-82
2023/05/25 00:08:20;;;;;;;15.93;9.13;;;9.00;99.90;;;;;;5040644;28;20701;-81
2023/05/25 00:10:47;;;;;;;16.77;8.57;;;8.90;99.90;;;;;;5036069;28;20750;-81
2023/05/25 00:13:14;;;;;;;14.37;9.07;;;8.90;99.90;;;;;;5037940;28;20773;-81
2023/05/25 00:15:41;;;;;;;14.73;8.73;;;8.80;99.90;;;;;;5043091;28;20708;-80
2023/05/25 00:18:09;;;;;;;15.53;9.23;;;8.80;99.90;;;;;;5024554;28;20233;-81
2023/05/25 00:20:36;;;;;;;14.23;9.00;;;8.70;99.90;;;;;;5038387;28;20716;-81
2023/05/25 00:23:04;;;;;;;15.60;9.10;;;8.70;99.90;;;;;;5037514;28;20230;-82
2023/05/25 00:25:31;;;;;;;18.70;9.93;;;8.60;99.90;;;;;;5037315;28;20689;-81
2023/05/25 00:27:58;;;;;;;17.83;9.87;;;8.60;99.90;;;;;;5015509;28;20894;-82
2023/05/25 00:30:25;;;;;;;14.97;8.60;;;8.60;99.90;;;;;;5019745;28;21936;-81
2023/05/25 00:32:52;;;;;;;15.10;8.90;;;8.50;99.90;;;;;;5021888;28;20228;-82
2023/05/25 00:35:20;;;;;;;13.83;8.93;;;8.50;99.90;;;;;;5040954;28;20281;-82
2023/05/25 00:37:48;;;;;;;16.03;8.60;;;8.40;99.90;;;;;;5025579;28;20740;-82
2023/05/25 00:40:15;;;;;;;17.17;9.17;;;8.40;99.90;;;;;;5037543;28;20804;-81
2023/05/25 00:42:43;;;;;;;14.90;9.20;;;8.40;99.90;;;;;;5013323;28;20226;-82
2023/05/25 00:45:11;;;;;;;16.10;8.80;;;8.40;99.90;;;;;;5022460;28;21246;-81
2023/05/25 00:47:38;;;;;;;16.00;7.97;;;8.30;99.90;;;;;;5027684;28;20218;-81
2023/05/25 00:50:09;;;;;;;14.57;7.97;;;8.30;99.90;;;;;;5025795;28;20226;-81
2023/05/25 00:52:37;;;;;;;13.60;7.57;;;8.30;99.90;;;;;;5023863;28;20231;-81
2023/05/25 00:55:12;;;;;;;13.10;8.30;;;8.30;99.90;;;;;;5021681;28;20231;-84
2023/05/25 00:57:44;;;;;;;16.30;8.30;;;8.30;99.90;;;;;;5038747;28;20230;-83
2023/05/25 01:00:14;;;;;;;14.13;7.90;;;8.20;99.90;;;;;;5034296;28;20251;-83
2023/05/25 01:02:43;;;;;;;15.90;8.10;;;8.20;99.90;;;;;;5038254;28;20231;-81
2023/05/25 01:05:11;;;;;;;16.07;7.47;;;8.20;99.90;;;;;;5022401;28;20220;-81
2023/05/25 01:07:43;;;;;;;11.77;7.63;;;8.10;99.90;;;;;;5022983;28;20227;-80
2023/05/25 01:10:11;;;;;;;13.13;7.57;;;8.10;99.90;;;;;;5026015;28;20230;-82
2023/05/25 01:12:40;;;;;;;16.70;8.07;;;8.10;99.90;;;;;;5020257;28;20647;-82
2023/05/25 01:15:08;;;;;;;14.00;7.63;;;8.10;99.90;;;;;;5012335;28;20733;-81
2023/05/25 01:17:36;;;;;;;13.80;7.70;;;8.00;99.90;;;;;;5038953;28;20897;-81
2023/05/25 01:20:05;;;;;;;15.00;7.20;;;8.00;99.90;;;;;;5019432;28;20231;-82
2023/05/25 01:22:40;;;;;;;11.10;6.60;;;8.00;99.90;;;;;;5019954;28;20712;-82
2023/05/25 01:25:12;;;;;;;12.90;7.57;;;8.00;99.90;;;;;;5015288;28;20226;-81
2023/05/25 01:27:43;;;;;;;14.83;7.53;;;7.90;99.90;;;;;;5022709;28;20238;-81
2023/05/25 01:30:14;;;;;;;13.67;7.43;;;7.90;99.90;;;;;;5038582;28;20247;-80
2023/05/25 01:32:42;;;;;;;15.40;7.97;;;7.90;99.90;;;;;;5041135;28;20692;-80
2023/05/25 01:35:10;;;;;;;13.77;7.87;;;7.90;99.90;;;;;;5021580;28;20321;-80
2023/05/25 01:37:45;;;;;;;12.00;6.77;;;7.90;99.90;;;;;;5037251;28;20302;-80
2023/05/25 01:40:12;;;;;;;14.03;7.47;;;7.90;99.90;;;;;;5034662;28;20323;-80
2023/05/25 01:42:39;;;;;;;14.07;7.73;;;7.90;99.90;;;;;;5034435;28;20326;-81
2023/05/25 01:45:07;;;;;;;17.63;8.17;;;7.90;99.90;;;;;;5020648;28;20219;-82
2023/05/25 01:47:43;;;;;;;14.90;7.90;;;7.90;99.90;;;;;;5037397;28;20237;-81
2023/05/25 01:50:18;;;;;;;15.67;7.97;;;7.90;99.90;;;;;;5023128;28;20230;-82
2023/05/25 01:52:55;;;;;;;14.17;7.40;;;7.90;99.90;;;;;;5024601;28;20225;-81
2023/05/25 01:55:26;;;;;;;18.17;7.77;;;7.90;99.90;;;;;;5022512;28;20269;-81
2023/05/25 01:57:56;;;;;;;16.53;7.93;;;7.90;99.90;;;;;;5020247;28;20226;-83
2023/05/25 02:00:25;;;;;;;19.57;8.33;;;7.90;99.90;;;;;;5021576;28;20215;-81
2023/05/25 02:02:53;;;;;;;13.20;7.50;;;7.90;99.90;;;;;;5022285;28;20331;-84
2023/05/25 02:05:21;;;;;;;30.10;9.33;;;7.90;99.90;;;;;;5024561;28;20234;-84
2023/05/25 02:07:49;;;;;;;16.63;8.43;;;7.90;99.90;;;;;;5031852;28;20230;-83
2023/05/25 02:10:16;;;;;;;17.63;8.60;;;7.80;99.90;;;;;;5033821;28;20229;-83
2023/05/25 02:12:42;;;;;;;18.73;8.23;;;7.80;99.90;;;;;;5015764;28;20234;-83
2023/05/25 02:15:10;;;;;;;16.77;8.33;;;7.80;99.90;;;;;;5034895;28;20232;-83
2023/05/25 02:17:37;;;;;;;18.30;8.27;;;7.80;99.90;;;;;;5018107;28;20229;-83
2023/05/25 02:20:06;;;;;;;17.93;8.57;;;7.80;99.90;;;;;;5022706;28;20231;-82
2023/05/25 02:22:33;;;;;;;20.73;9.30;;;7.80;99.90;;;;;;5035323;28;20241;-82
2023/05/25 02:25:02;;;;;;;21.23;8.90;;;7.80;99.90;;;;;;5035285;28;20241;-83
2023/05/25 02:27:29;;;;;;;15.57;8.53;;;7.70;99.90;;;;;;5031610;28;20227;-83
2023/05/25 02:29:56;;;;;;;14.53;8.83;;;7.70;99.90;;;;;;5021999;28;20236;-83
2023/05/25 02:32:25;;;;;;;19.20;9.03;;;7.70;99.90;;;;;;5018149;28;20222;-84
2023/05/25 02:34:51;;;;;;;22.17;10.07;;;7.70;99.90;;;;;;5020139;28;20226;-83
2023/05/25 02:37:18;;;;;;;14.40;9.00;;;7.60;99.90;;;;;;5022303;28;20234;-83
2023/05/25 02:39:45;;;;;;;17.47;8.77;;;7.70;99.90;;;;;;5025988;28;20314;-83
2023/05/25 02:42:13;;;;;;;13.57;9.83;;;7.60;99.90;;;;;;5021022;28;20302;-84
2023/05/25 02:44:40;;;;;;;19.23;10.23;;;7.70;99.90;;;;;;5023093;28;20309;-84
2023/05/25 02:47:07;;;;;;;15.17;9.07;;;7.60;99.90;;;;;;5027492;28;20214;-83
2023/05/25 02:49:34;;;;;;;20.47;9.73;;;7.60;99.90;;;;;;5025823;28;20222;-84
2023/05/25 02:52:00;;;;;;;16.80;10.00;;;7.60;99.90;;;;;;5035719;28;20228;-83
2023/05/25 02:54:27;;;;;;;20.30;9.30;;;7.50;99.90;;;;;;5034881;28;20317;-83
2023/05/25 02:56:54;;;;;;;15.93;9.40;;;7.50;99.90;;;;;;5040114;28;20221;-84
2023/05/25 02:59:23;;;;;;;14.27;9.73;;;7.50;99.90;;;;;;5021781;28;20228;-83
2023/05/25 03:01:51;;;;;;;22.17;10.90;;;7.50;99.90;;;;;;5024358;28;20334;-83
2023/05/25 03:04:19;;;;;;;21.00;10.33;;;7.50;99.90;;;;;;5040952;28;20244;-83
2023/05/25 03:06:46;;;;;;;19.27;10.53;;;7.50;99.90;;;;;;5018489;28;20225;-83
2023/05/25 03:09:17;;;;;;;20.10;11.10;;;7.50;99.90;;;;;;5037555;28;20747;-84
2023/05/25 03:11:46;;;;;;;20.90;10.63;;;7.50;99.90;;;;;;5021583;28;20841;-83
2023/05/25 03:14:16;;;;;;;23.73;11.17;;;7.50;99.90;;;;;;5022748;28;20214;-83
2023/05/25 03:16:50;;;;;;;19.80;10.37;;;7.60;99.90;;;;;;5020037;28;20229;-82
2023/05/25 03:19:19;;;;;;;25.40;12.70;;;7.70;99.90;;;;;;5012919;28;20249;-83
2023/05/25 03:21:46;;;;;;;24.07;12.13;;;7.70;99.90;;;;;;5025621;28;20770;-83
2023/05/25 03:24:13;;;;;;;20.20;12.17;;;7.80;99.90;;;;;;5021323;28;20229;-82
2023/05/25 03:26:41;;;;;;;20.40;11.53;;;7.80;99.90;;;;;;5021498;28;20218;-82
2023/05/25 03:29:08;;;;;;;22.87;12.27;;;7.90;99.90;;;;;;5014275;28;20226;-83
2023/05/25 03:31:35;;;;;;;28.40;12.70;;;8.00;99.90;;;;;;5017175;28;20606;-82
2023/05/25 03:34:05;;;;;;;23.03;12.00;;;8.00;99.90;;;;;;5017642;28;20227;-83
2023/05/25 03:36:34;;;;;;;22.60;12.57;;;8.10;99.90;;;;;;5018937;28;20223;-82
2023/05/25 03:39:00;;;;;;;24.40;12.50;;;8.20;99.90;;;;;;5020925;28;20288;-82
2023/05/25 03:41:27;;;;;;;23.20;12.67;;;8.20;99.90;;;;;;5022694;28;20257;-83
2023/05/25 03:43:55;;;;;;;21.57;11.53;;;8.30;99.90;;;;;;5023347;28;20215;-83
2023/05/25 03:46:22;;;;;;;25.93;12.07;;;8.30;99.90;;;;;;5021258;28;20230;-83
2023/05/25 03:48:48;;;;;;;20.27;11.57;;;8.40;99.90;;;;;;5022744;28;20229;-84
2023/05/25 03:51:16;;;;;;;23.73;12.13;;;8.40;99.90;;;;;;5035265;28;21091;-83
2023/05/25 03:53:45;;;;;;;18.40;11.23;;;8.50;99.90;;;;;;5015846;28;20254;-84
2023/05/25 03:56:11;;;;;;;23.50;11.17;;;8.60;99.90;;;;;;5023383;28;20224;-84
2023/05/25 03:58:38;;;;;;;19.97;10.60;;;8.60;99.90;;;;;;5023611;28;20245;-84
2023/05/25 04:01:05;;;;;;;19.63;10.33;;;8.60;99.90;;;;;;5042577;28;20228;-85
2023/05/25 04:03:32;;;;;;;22.23;11.13;;;8.60;99.90;;;;;;5033931;28;20234;-84
2023/05/25 04:06:00;;;;;;;20.40;10.83;;;8.70;99.90;;;;;;5019747;28;20228;-84
2023/05/25 04:08:29;;;;;;;18.87;10.63;;;8.70;99.90;;;;;;5021506;28;20230;-84
2023/05/25 04:10:57;;;;;;;21.57;9.90;;;8.80;99.90;;;;;;5024406;28;20223;-85
2023/05/25 04:13:25;;;;;;;21.30;9.87;;;8.80;99.90;;;;;;5036237;28;20314;-84
2023/05/25 04:15:52;;;;;;;18.37;12.07;;;8.90;99.90;;;;;;5024333;28;20316;-84
2023/05/25 04:18:22;;;;;;;18.23;9.40;;;8.90;99.90;;;;;;5017682;28;20212;-84
2023/05/25 04:20:49;;;;;;;15.97;9.20;;;8.90;99.90;;;;;;5013190;28;20232;-85
2023/05/25 04:23:18;;;;;;;16.30;9.43;;;8.90;99.90;;;;;;5021517;28;20308;-85
2023/05/25 04:25:46;;;;;;;19.37;12.27;;;8.90;99.90;;;;;;5021393;28;20891;-83
2023/05/25 04:28:14;;;;;;;16.57;8.50;;;8.90;99.90;;;;;;5021572;28;20211;-85
2023/05/25 04:30:50;;;;;;;18.83;9.80;;;9.00;99.90;;;;;;5017534;28;20241;-80
2023/05/25 04:33:30;;;;;;;15.90;8.17;;;8.90;99.90;;;;;;5035895;28;20227;-82
2023/05/25 04:36:02;;;;;;;18.57;8.43;;;9.00;99.90;;;;;;5024616;28;20242;-81
2023/05/25 04:38:32;;;;;;;17.40;8.13;;;9.00;99.90;;;;;;5021188;28;20240;-81
2023/05/25 04:41:01;;;;;;;17.83;8.83;;;9.00;99.90;;;;;;5025848;28;20228;-81
2023/05/25 04:43:29;;;;;;;18.57;8.30;;;9.10;99.90;;;;;;5021773;28;20606;-80
2023/05/25 04:45:56;;;;;;;18.93;9.73;;;9.10;99.90;;;;;;5024741;28;20222;-81
2023/05/25 04:48:24;;;;;;;15.30;8.10;;;9.10;99.90;;;;;;5016869;28;20329;-81
2023/05/25 04:50:52;;;;;;;15.23;7.73;;;9.20;99.90;;;;;;5023353;28;20252;-81
2023/05/25 04:53:19;;;;;;;18.33;7.20;;;9.30;99.90;;;;;;5039478;28;20223;-81
2023/05/25 04:55:48;;;;;;;16.97;7.00;;;9.30;99.90;;;;;;5023303;28;20231;-81
2023/05/25 04:58:16;;;;;;;15.13;6.87;;;9.40;99.90;;;;;;5018198;28;20315;-81
2023/05/25 05:00:44;;;;;;;10.73;6.23;;;9.50;99.90;;;;;;5018758;28;20228;-81
2023/05/25 05:03:11;;;;;;;14.23;6.97;;;9.60;99.90;;;;;;5034933;28;20220;-81
2023/05/25 05:05:37;;;;;;;16.43;7.03;;;9.60;99.90;;;;;;5038187;28;20218;-81
2023/05/25 05:08:08;;;;;;;17.20;7.03;;;9.70;99.90;;;;;;5039479;28;20290;-81
2023/05/25 05:10:34;;;;;;;13.00;6.17;;;9.70;99.90;;;;;;5040568;28;20260;-81
2023/05/25 05:13:03;;;;;;;13.50;6.50;;;9.80;99.90;;;;;;5022785;28;20696;-81
2023/05/25 05:15:31;;;;;;;14.27;6.03;;;9.90;99.90;;;;;;5022135;28;20311;-82
2023/05/25 05:17:59;;;;;;;11.23;5.60;;;9.90;99.90;;;;;;5016677;28;20325;-81
2023/05/25 05:20:26;;;;;;;13.47;5.77;;;10.00;99.90;;;;;;5023540;28;20246;-81
2023/05/25 05:22:53;;;;;;;15.13;6.53;;;10.10;99.90;;;;;;5023251;28;20216;-82
2023/05/25 05:25:20;;;;;;;15.83;6.50;;;10.10;99.90;;;;;;5022117;28;20213;-81
2023/05/25 05:27:47;;;;;;;12.70;5.80;;;10.20;99.90;;;;;;5022594;28;20223;-81
2023/05/25 05:30:38;;;;;;;11.90;5.40;;;10.20;99.90;;;;;;5026382;28;20230;-81
2023/05/25 05:33:05;;;;;;;13.93;6.17;;;10.20;99.90;;;;;;5022229;28;20234;-81
2023/05/25 05:35:37;;;;;;;14.63;5.10;;;10.20;99.90;;;;;;5018109;28;20650;-81
2023/05/25 05:38:11;;;;;;;17.77;5.83;;;10.20;99.90;;;;;;5019812;28;20235;-81
2023/05/25 05:40:38;;;;;;;18.30;5.97;;;10.20;99.90;;;;;;5019945;28;20232;-80
2023/05/25 05:43:05;;;;;;;16.17;6.20;;;10.30;99.90;;;;;;5034141;28;20211;-80
2023/05/25 05:45:32;;;;;;;14.83;5.80;;;10.30;99.90;;;;;;5021625;28;20323;-79
2023/05/25 05:48:00;;;;;;;12.37;5.20;;;10.40;99.90;;;;;;5021493;28;20224;-83
2023/05/25 05:50:27;;;;;;;13.40;5.43;;;10.50;99.90;;;;;;5029837;28;20218;-82
2023/05/25 05:52:54;;;;;;;12.37;4.93;;;10.60;99.90;;;;;;5022007;28;20767;-82
2023/05/25 05:55:21;;;;;;;13.07;5.20;;;10.70;99.90;;;;;;5024532;28;20865;-81
2023/05/25 05:57:51;;;;;;;12.17;5.63;;;10.80;99.90;;;;;;5020820;28;20282;-82
2023/05/25 06:00:20;;;;;;;12.87;5.00;;;10.80;99.90;;;;;;5020316;28;20247;-82
2023/05/25 06:02:47;;;;;;;15.73;5.10;;;10.90;99.90;;;;;;5022750;28;20235;-82
2023/05/25 06:05:20;;;;;;;15.43;5.20;;;11.00;99.90;;;;;;5026047;28;20231;-82
2023/05/25 06:07:47;;;;;;;15.67;4.77;;;11.00;99.90;;;;;;5024826;28;20250;-81
2023/05/25 06:10:14;;;;;;;16.67;5.70;;;11.00;99.90;;;;;;5042677;28;20307;-82
2023/05/25 06:12:43;;;;;;;17.93;5.60;;;11.00;99.90;;;;;;5012420;28;20719;-81
2023/05/25 06:15:10;;;;;;;17.63;5.80;;;11.00;99.90;;;;;;5028410;28;20218;-82
2023/05/25 06:17:38;;;;;;;13.87;4.67;;;11.00;99.90;;;;;;5031331;28;20232;-81
2023/05/25 06:20:06;;;;;;;14.07;5.43;;;11.00;99.90;;;;;;5028244;28;20317;-81
2023/05/25 06:22:34;;;;;;;16.60;5.30;;;11.00;99.90;;;;;;5022717;28;22962;-81
2023/05/25 06:25:01;;;;;;;14.33;4.93;;;11.10;99.90;;;;;;5029357;28;20286;-82
2023/05/25 06:27:28;;;;;;;11.90;4.83;;;11.20;99.90;;;;;;5028957;28;20253;-81
2023/05/25 06:29:54;;;;;;;14.90;4.80;;;11.20;99.90;;;;;;5026712;28;20213;-81
2023/05/25 06:32:21;;;;;;;13.90;5.00;;;11.30;99.90;;;;;;5039813;28;20577;-81
2023/05/25 06:34:48;;;;;;;23.67;4.83;;;11.40;99.90;;;;;;5021913;28;20224;-81
2023/05/25 06:37:15;;;;;;;17.60;5.03;;;11.50;99.90;;;;;;5043130;28;20222;-81
2023/05/25 06:39:44;;;;;;;12.53;4.60;;;11.60;99.90;;;;;;5024682;28;20250;-81
2023/05/25 06:42:11;;;;;;;20.70;5.77;;;11.80;99.90;;;;;;5019872;28;20235;-81
2023/05/25 06:44:48;;;;;;;19.43;4.77;;;11.90;99.90;;;;;;5024322;28;20218;-81
2023/05/25 06:47:14;;;;;;;12.20;4.27;;;12.10;99.90;;;;;;5026489;28;20246;-81
2023/05/25 06:49:41;;;;;;;16.03;4.67;;;12.20;99.90;;;;;;5023612;28;20248;-81
2023/05/25 06:52:08;;;;;;;17.57;5.13;;;12.20;99.90;;;;;;5027327;28;20309;-81
2023/05/25 06:54:34;;;;;;;12.57;4.40;;;12.30;99.90;;;;;;5037687;28;20227;-81
2023/05/25 06:57:02;;;;;;;17.30;5.40;;;12.50;99.90;;;;;;5026222;28;20601;-81
2023/05/25 06:59:29;;;;;;;18.03;4.77;;;12.70;99.90;;;;;;5037024;28;20231;-81
2023/05/25 07:01:57;;;;;;;27.67;11.97;;;12.80;99.90;;;;;;5037795;28;20407;-80
2023/05/25 07:04:24;;;;;;;14.90;5.20;;;13.10;99.90;;;;;;5029748;28;20223;-82
2023/05/25 07:06:52;;;;;;;15.40;6.87;;;13.30;99.90;;;;;;5039638;28;20905;-81
2023/05/25 07:09:18;;;;;;;12.77;4.80;;;13.40;99.90;;;;;;5048749;28;20235;-78
2023/05/25 07:11:45;;;;;;;18.73;5.57;;;13.70;99.90;;;;;;5026501;28;20799;-78
2023/05/25 07:14:13;;;;;;;14.70;4.60;;;13.90;99.90;;;;;;5046395;28;20844;-78
2023/05/25 07:16:40;;;;;;;35.73;24.10;;;14.10;99.90;;;;;;5047776;28;20237;-78
2023/05/25 07:19:07;;;;;;;27.20;13.73;;;14.40;99.90;;;;;;5047299;28;20657;-78
2023/05/25 07:21:33;;;;;;;16.97;5.23;;;14.70;99.90;;;;;;5027561;28;20234;-78
2023/05/25 07:24:00;;;;;;;12.20;4.40;;;15.10;99.90;;;;;;5039942;28;20215;-78
2023/05/25 07:26:27;;;;;;;17.53;7.43;;;15.60;99.90;;;;;;5050098;28;20698;-78
2023/05/25 07:28:54;;;;;;;12.90;4.60;;;16.20;99.90;;;;;;5041175;28;20224;-78
2023/05/25 07:31:22;;;;;;;14.17;4.80;;;16.80;99.90;;;;;;5036752;28;20242;-78
2023/05/25 07:33:49;;;;;;;14.30;4.07;;;17.40;99.90;;;;;;5048496;28;20234;-78
2023/05/25 07:36:16;;;;;;;12.43;3.80;;;18.00;99.90;;;;;;5048365;28;20228;-78
2023/05/25 07:38:43;;;;;;;13.55;3.90;;;18.70;99.90;;;;;;5039415;28;20239;-78
2023/05/25 07:41:12;;;;;;;10.82;4.40;;;19.30;99.30;;;;;;5048388;28;20234;-78
2023/05/25 07:43:38;;;;;;;11.75;3.85;;;19.90;98.80;;;;;;5045011;28;20224;-77
2023/05/25 07:46:05;;;;;;;9.80;3.38;;;20.50;97.50;;;;;;5048372;28;20212;-78
2023/05/25 07:48:33;;;;;;;11.30;4.13;;;21.10;96.80;;;;;;5048533;28;20220;-78
2023/05/25 07:51:00;;;;;;;10.50;4.00;;;21.60;95.00;;;;;;5048142;28;20583;-78
2023/05/25 07:53:26;;;;;;;9.27;3.65;;;22.00;94.50;;;;;;5048659;28;20866;-77
2023/05/25 07:55:53;;;;;;;10.13;3.85;;;22.50;94.30;;;;;;5029251;28;20260;-77
2023/05/25 07:58:20;;;;;;;12.55;4.00;;;22.90;93.30;;;;;;5046721;28;20219;-77
2023/05/25 08:00:48;;;;;;;9.10;3.95;;;23.40;93.10;;;;;;5047414;28;20323;-77
2023/05/25 08:03:15;;;;;;;10.75;4.00;;;23.70;91.30;;;;;;5046566;28;20232;-78
2023/05/25 08:05:43;;;;;;;8.32;3.55;;;23.80;89.80;;;;;;5048774;28;20686;-78
2023/05/25 08:08:10;;;;;;;10.80;4.05;;;24.00;87.20;;;;;;5047375;28;20640;-77
2023/05/25 08:10:37;;;;;;;10.07;3.55;;;23.90;88.20;;;;;;5047748;28;20224;-77
2023/05/25 08:13:03;;;;;;;13.50;4.22;;;23.90;87.70;;;;;;5044926;28;20875;-77
2023/05/25 08:15:30;;;;;;;9.13;3.75;;;24.00;87.80;;;;;;5045189;28;20639;-77
2023/05/25 08:17:57;;;;;;;11.30;4.07;;;24.10;84.70;;;;;;5047226;28;20655;-77
2023/05/25 08:20:24;;;;;;;9.88;4.05;;;24.20;85.40;;;;;;5047005;28;20230;-77
2023/05/25 08:22:53;;;;;;;10.93;3.97;;;24.40;85.10;;;;;;5047105;28;20232;-77
2023/05/25 08:25:20;;;;;;;13.82;4.40;;;24.60;84.00;;;;;;5046505;28;20235;-77
2023/05/25 08:27:47;;;;;;;11.82;4.07;;;24.70;82.60;;;;;;5046553;28;20251;-77
2023/05/25 08:30:13;;;;;;;10.02;4.22;;;24.90;80.00;;;;;;5045107;28;20220;-77
2023/05/25 08:32:40;;;;;;;10.35;4.15;;;25.00;78.30;;;;;;5046707;28;20227;-77
2023/05/25 08:35:08;;;;;;;15.75;4.57;;;25.20;78.20;;;;;;5021043;28;20223;-77
2023/05/25 08:37:35;;;;;;;12.52;4.07;;;25.40;77.60;;;;;;5046877;28;20231;-77
2023/05/25 08:40:05;;;;;;;10.77;3.72;;;25.60;75.50;;;;;;5029007;28;20219;-77
2023/05/25 08:42:32;;;;;;;13.68;4.38;;;25.70;74.10;;;;;;5046045;28;20235;-77
2023/05/25 08:45:01;;;;;;;12.25;4.05;;;25.90;73.40;;;;;;5046964;28;20230;-77
2023/05/25 08:47:31;;;;;;;11.45;4.10;;;26.00;72.80;;;;;;5045741;28;20226;-77
2023/05/25 08:50:00;;;;;;;13.40;4.05;;;26.00;69.90;;;;;;5046541;28;20224;-77
2023/05/25 08:52:31;;;;;;;12.13;3.78;;;26.00;70.20;;;;;;5045364;28;20250;-77
2023/05/25 08:55:03;;;;;;;16.75;4.60;;;25.90;69.70;;;;;;5046985;28;20231;-77
2023/05/25 08:57:37;;;;;;;9.77;4.10;;;25.80;69.10;;;;;;5045589;28;20227;-77
2023/05/25 09:00:09;;;;;;;10.40;3.95;;;25.80;68.30;;;;;;5046195;28;20223;-77
2023/05/25 09:02:41;;;;;;;12.32;4.35;;;25.90;68.90;;;;;;5046024;28;20228;-77
2023/05/25 09:05:08;;;;;;;14.93;4.57;;;26.10;67.80;;;;;;5045908;28;20226;-77
2023/05/25 09:07:35;;;;;;;12.95;4.43;;;26.10;67.40;;;;;;5046373;28;20224;-77
2023/05/25 09:10:03;;;;;;;12.50;4.53;;;26.10;67.80;;;;;;5046391;28;20224;-77
2023/05/25 09:12:31;;;;;;;14.75;5.07;;;26.10;66.20;;;;;;5044971;28;20235;-77
2023/05/25 09:14:59;;;;;;;10.57;4.28;;;26.10;65.90;;;;;;5046331;28;20612;-77
2023/05/25 09:17:26;;;;;;;11.07;4.63;;;26.00;65.90;;;;;;5038681;28;20275;-77
2023/05/25 09:19:52;;;;;;;11.85;4.50;;;26.00;65.80;;;;;;5033286;28;20261;-77
2023/05/25 09:22:19;;;;;;;11.40;4.55;;;25.90;64.60;;;;;;5045224;28;20236;-78
2023/05/25 09:24:46;;;;;;;15.43;4.88;;;25.90;64.60;;;;;;5046349;28;20714;-77
2023/05/25 09:27:17;;;;;;;13.18;4.82;;;25.90;64.70;;;;;;5045060;28;20226;-77
2023/05/25 09:29:46;;;;;;;12.30;4.28;;;26.00;63.50;;;;;;5045932;28;20702;-77
2023/05/25 09:32:12;;;;;;;13.80;4.57;;;26.10;63.30;;;;;;5045705;28;20232;-77
2023/05/25 09:34:39;;;;;;;13.50;4.80;;;26.20;63.00;;;;;;5045937;28;20224;-78
2023/05/25 09:37:11;;;;;;;11.90;4.75;;;26.30;63.50;;;;;;5045258;28;20561;-77
2023/05/25 09:39:39;;;;;;;13.55;4.43;;;26.50;62.00;;;;;;5046137;28;20228;-77
2023/05/25 09:42:06;;;;;;;14.30;4.57;;;26.70;63.10;;;;;;5045146;28;20240;-77
2023/05/25 09:44:33;;;;;;;13.02;4.78;;;26.80;60.80;;;;;;5036529;28;20228;-77
2023/05/25 09:47:01;;;;;;;14.73;4.85;;;26.90;60.20;;;;;;5045318;28;20232;-77
2023/05/25 09:49:28;;;;;;;14.75;5.03;;;26.90;59.40;;;;;;5045286;28;20587;-78
2023/05/25 09:51:55;;;;;;;11.20;4.30;;;26.80;59.20;;;;;;5049774;28;20232;-77
2023/05/25 09:54:22;;;;;;;9.63;4.10;;;26.70;59.60;;;;;;5049585;28;20223;-75
2023/05/25 09:56:50;;;;;;;12.23;4.35;;;26.70;60.00;;;;;;5049306;28;20255;-75
2023/05/25 09:59:17;;;;;;;12.63;4.07;;;26.80;59.60;;;;;;5049563;28;20227;-75
2023/05/25 10:01:44;;;;;;;11.15;4.30;;;26.90;59.30;;;;;;5049370;28;20230;-75
2023/05/25 10:04:15;;;;;;;13.65;4.70;;;27.00;58.90;;;;;;5049562;28;20223;-75
2023/05/25 10:06:44;;;;;;;9.75;4.30;;;27.00;57.80;;;;;;5049630;28;20224;-75
2023/05/25 10:09:13;;;;;;;13.02;4.50;;;27.10;58.80;;;;;;5029471;28;20224;-75
2023/05/25 10:11:43;;;;;;;12.52;4.38;;;27.10;59.00;;;;;;5036566;28;20323;-75
2023/05/25 10:14:14;;;;;;;11.25;4.68;;;27.10;57.70;;;;;;5030947;28;20255;-75
2023/05/25 10:16:42;;;;;;;14.65;4.80;;;27.10;57.80;;;;;;5048924;28;20262;-76
2023/05/25 10:19:17;;;;;;;10.77;4.28;;;27.00;57.30;;;;;;5048781;28;20902;-76
2023/05/25 10:21:51;;;;;;;15.13;4.63;;;27.00;57.20;;;;;;5049028;28;20254;-76
2023/05/25 10:24:24;;;;;;;12.10;4.82;;;26.90;57.00;;;;;;5040455;28;20226;-77
2023/05/25 10:26:56;;;;;;;14.18;4.88;;;26.80;56.30;;;;;;5048470;28;20309;-77
2023/05/25 10:29:24;;;;;;;10.93;4.55;;;26.70;55.80;;;;;;5038185;28;20223;-77
2023/05/25 10:31:51;;;;;;;11.23;4.93;;;26.60;56.80;;;;;;5047369;28;20216;-77
2023/05/25 10:34:21;;;;;;;14.00;4.95;;;26.50;57.20;;;;;;5032109;28;20235;-77
2023/05/25 10:36:49;;;;;;;14.43;4.78;;;26.50;56.80;;;;;;5044768;28;20220;-77
2023/05/25 10:39:16;;;;;;;12.82;5.10;;;26.50;56.60;;;;;;5042383;28;20217;-78
2023/05/25 10:41:43;;;;;;;9.98;4.28;;;26.50;57.20;;;;;;5045897;28;20234;-78
2023/05/25 10:44:11;;;;;;;12.82;5.30;;;26.40;56.50;;;;;;5043282;28;20251;-77
2023/05/25 10:46:38;;;;;;;14.57;4.75;;;26.30;56.50;;;;;;5047778;28;20228;-77
2023/05/25 10:49:04;;;;;;;13.77;4.65;;;26.20;56.70;;;;;;5040482;28;20236;-77
2023/05/25 10:51:39;;;;;;;13.32;4.80;;;26.00;56.90;;;;;;5049656;28;20286;-78
2023/05/25 10:54:06;;;;;;;11.25;4.30;;;25.90;57.00;;;;;;5029357;28;20292;-78
2023/05/25 10:56:33;;;;;;;12.48;4.82;;;25.90;56.90;;;;;;5030574;28;20235;-77
2023/05/25 10:59:00;;;;;;;12.27;4.13;;;25.80;57.30;;;;;;5041364;28;20232;-77
2023/05/25 11:01:27;;;;;;;12.43;4.40;;;25.70;56.90;;;;;;5035035;28;20310;-78
2023/05/25 11:03:55;;;;;;;11.18;4.63;;;25.70;57.00;;;;;;5047903;28;20231;-77
2023/05/25 11:06:23;;;;;;;12.00;4.38;;;25.60;55.70;;;;;;5028953;28;20254;-77
2023/05/25 11:08:54;;;;;;;14.52;5.53;;;25.40;56.30;;;;;;5042605;28;20316;-77
2023/05/25 11:11:22;;;;;;;13.35;4.63;;;25.30;56.90;;;;;;5037740;28;20220;-77
2023/05/25 11:13:49;;;;;;;13.02;4.38;;;25.20;57.00;;;;;;5044846;28;20236;-78
2023/05/25 11:16:18;;;;;;;11.77;4.82;;;25.10;57.30;;;;;;5041411;28;20252;-77
2023/05/25 11:18:50;;;;;;;13.43;4.53;;;25.10;57.20;;;;;;5030572;28;21637;-77
2023/05/25 11:21:22;;;;;;;13.00;4.90;;;24.90;57.10;;;;;;5025062;28;20315;-77
2023/05/25 11:23:54;;;;;;;13.05;4.85;;;24.90;57.60;;;;;;5036013;28;20717;-77
2023/05/25 11:26:22;;;;;;;13.48;5.30;;;24.90;57.30;;;;;;5053510;28;20260;-78
2023/05/25 11:28:50;;;;;;;14.45;4.85;;;24.80;57.00;;;;;;5048206;28;20882;-77
2023/05/25 11:31:19;;;;;;;14.00;4.75;;;24.80;57.70;;;;;;5045113;28;20228;-77
2023/05/25 11:33:47;;;;;;;12.85;4.53;;;24.90;57.70;;;;;;5044513;28;20227;-78
2023/05/25 11:36:14;;;;;;;13.10;4.70;;;25.00;57.50;;;;;;5024078;28;20208;-77
2023/05/25 11:38:44;;;;;;;11.48;5.00;;;25.10;57.10;;;;;;5040176;28;20319;-78
2023/05/25 11:41:17;;;;;;;16.80;4.75;;;25.20;56.90;;;;;;5046629;28;20222;-77
2023/05/25 11:43:46;;;;;;;12.70;4.72;;;25.30;56.40;;;;;;5029541;28;20228;-77
2023/05/25 11:46:13;;;;;;;13.82;5.07;;;25.30;56.40;;;;;;5037756;28;20275;-77
2023/05/25 11:48:43;;;;;;;11.75;4.40;;;25.40;56.70;;;;;;5039909;28;20232;-77
2023/05/25 11:51:10;;;;;;;13.43;4.95;;;25.50;56.80;;;;;;5043808;28;20232;-78
2023/05/25 11:53:41;;;;;;;12.50;4.57;;;25.70;57.10;;;;;;5048909;28;20230;-78
2023/05/25 11:56:08;;;;;;;15.38;4.57;;;25.80;56.20;;;;;;5028902;28;20231;-78
2023/05/25 11:58:36;;;;;;;11.65;4.63;;;26.00;56.30;;;;;;5035512;28;20319;-78
2023/05/25 12:01:18;;;;;;;17.25;5.18;;;26.20;56.30;;;;;;5029429;28;20239;-77
2023/05/25 12:03:46;;;;;;;11.63;4.47;;;26.40;55.30;;;;;;5046211;28;20232;-78
2023/05/25 12:06:26;;;;;;;12.10;4.72;;;26.70;55.10;;;;;;5026804;28;21678;-78
2023/05/25 12:08:53;;;;;;;11.65;4.55;;;26.80;54.50;;;;;;5040219;28;20219;-77
2023/05/25 12:11:27;;;;;;;15.55;5.40;;;26.80;54.60;;;;;;5032247;28;20237;-78
2023/05/25 12:13:56;;;;;;;14.68;5.07;;;26.60;53.20;;;;;;5032642;28;20790;-78
2023/05/25 12:16:23;;;;;;;13.48;5.20;;;26.50;53.60;;;;;;5042693;28;20310;-77
2023/05/25 12:18:50;;;;;;;13.70;4.93;;;26.30;53.80;;;;;;5038218;28;20301;-77
2023/05/25 12:21:17;;;;;;;13.82;5.63;;;26.10;54.00;;;;;;5028565;28;20223;-78
2023/05/25 12:23:44;;;;;;;14.80;5.10;;;25.90;53.60;;;;;;5046268;28;20232;-77
2023/05/25 12:26:12;;;;;;;14.75;4.70;;;25.80;54.10;;;;;;5041797;28;20220;-77
2023/05/25 12:28:39;;;;;;;15.73;5.40;;;25.70;54.50;;;;;;5045336;28;20236;-78
2023/05/25 12:31:24;;;;;;;13.27;4.70;;;25.70;55.00;;;;;;5045709;28;20734;-78
2023/05/25 12:34:07;;;;;;;14.38;4.95;;;25.70;53.30;;;;;;5025836;28;20315;-77
2023/05/25 12:36:46;;;;;;;13.85;5.38;;;25.80;53.70;;;;;;5020677;28;20685;-78
2023/05/25 12:39:15;;;;;;;14.45;4.50;;;25.70;53.30;;;;;;5047133;28;20274;-78
2023/05/25 12:41:47;;;;;;;13.20;4.82;;;25.60;53.10;;;;;;5028908;28;20231;-78
2023/05/25 12:44:22;;;;;;;14.15;4.93;;;25.50;53.60;;;;;;5046200;28;20343;-78
2023/05/25 12:46:51;;;;;;;20.38;5.80;;;25.50;54.50;;;;;;5046477;28;20274;-78